Observation data for Plains on 07/17/2019      Previous  Date       Current Mesonet Observations  Soil Data  Daily Summary Page  Observations in Plain Language
KPPS 170500Z 13008KT 25/13 A3005 RMK A01 T02480126  RH  048%=      5-min Rain = 0
KPPS 170505Z 14008KT 25/13 A3005 RMK A01 T02500126  RH  048%=      5-min Rain = 0
KPPS 170510Z 14008KT 25/13 A3005 RMK A01 T02530126  RH  047%=      5-min Rain = 0
KPPS 170515Z 14008KT 25/13 A3005 RMK A01 T02530127  RH  048%=      5-min Rain = 0
KPPS 170520Z 14008KT 25/13 A3005 RMK A01 T02520128  RH  048%=      5-min Rain = 0
KPPS 170525Z 14008KT 25/13 A3005 RMK A01 T02510129  RH  049%=      5-min Rain = 0
KPPS 170530Z 14008KT 25/13 A3005 RMK A01 T02490129  RH  049%=      5-min Rain = 0
KPPS 170535Z 14008KT 25/13 A3005 RMK A01 T02490130  RH  049%=      5-min Rain = 0
KPPS 170540Z 15008KT 25/13 A3005 RMK A01 T02490131  RH  050%=      5-min Rain = 0
KPPS 170545Z 15009KT 25/13 A3005 RMK A01 T02510132  RH  050%=      5-min Rain = 0
KPPS 170550Z 15009KT 25/14 A3005 RMK A01 T02530135  RH  050%=      5-min Rain = 0
KPPS 170555Z 15010KT 26/14 A3005 RMK A01 T02610138  RH  049%=      5-min Rain = 0
KPPS 170600Z 16009KT 26/14 A3005 RMK A01 T02630138  RH  048%=      5-min Rain = 0
KPPS 170605Z 16010KT 27/14 A3005 RMK A01 T02650139  RH  048%=      5-min Rain = 0
KPPS 170610Z 16010KT 27/14 A3005 RMK A01 T02670140  RH  048%=      5-min Rain = 0
KPPS 170615Z 16010KT 27/14 A3005 RMK A01 T02680141  RH  048%=      5-min Rain = 0
KPPS 170620Z 16011KT 27/14 A3005 RMK A01 T02680141  RH  048%=      5-min Rain = 0
KPPS 170625Z 15011KT 27/14 A3005 RMK A01 T02680142  RH  048%=      5-min Rain = 0
KPPS 170630Z 15014KT 27/15 A3005 RMK A01 T02700145  RH  048%=      5-min Rain = 0
KPPS 170635Z 16015G20KT 27/15 A3005 RMK A01 T02730148  RH  049%=      5-min Rain = 0
KPPS 170640Z 16015KT 27/15 A3004 RMK A01 T02740150  RH  049%=      5-min Rain = 0
KPPS 170645Z 16014G19KT 28/15 A3004 RMK A01 T02750151  RH  049%=      5-min Rain = 0
KPPS 170650Z 16014G19KT 28/15 A3004 RMK A01 T02750152  RH  049%=      5-min Rain = 0
KPPS 170655Z 17013KT 28/15 A3005 RMK A01 T02750153  RH  050%=      5-min Rain = 0
KPPS 170700Z 17010KT 27/15 A3005 RMK A01 T02730154  RH  050%=      5-min Rain = 0
KPPS 170705Z 17010KT 27/15 A3006 RMK A01 T02710154  RH  051%=      5-min Rain = 0
KPPS 170710Z 18011G16KT 27/16 A3006 RMK A01 T02710155  RH  052%=      5-min Rain = 0
KPPS 170715Z 18011KT 27/16 A3006 RMK A01 T02710157  RH  052%=      5-min Rain = 0
KPPS 170720Z 19010KT 27/16 A3006 RMK A01 T02710158  RH  052%=      5-min Rain = 0
KPPS 170725Z 20009KT 27/16 A3006 RMK A01 T02700159  RH  053%=      5-min Rain = 0
KPPS 170730Z 19009G16KT 27/16 A3006 RMK A01 T02690159  RH  053%=      5-min Rain = 0
KPPS 170735Z 19012KT 27/16 A3006 RMK A01 T02690160  RH  054%=      5-min Rain = 0
KPPS 170740Z 19009KT 27/16 A3006 RMK A01 T02680160  RH  054%=      5-min Rain = 0
KPPS 170745Z 21008KT 27/16 A3007 RMK A01 T02670160  RH  055%=      5-min Rain = 0
KPPS 170750Z 21008KT 27/16 A3007 RMK A01 T02650160  RH  055%=      5-min Rain = 0
KPPS 170755Z 19010KT 26/16 A3006 RMK A01 T02630160  RH  056%=      5-min Rain = 0
KPPS 170800Z 18012KT 26/16 A3006 RMK A01 T02630160  RH  056%=      5-min Rain = 0
KPPS 170805Z 17013KT 26/16 A3005 RMK A01 T02620161  RH  056%=      5-min Rain = 0
KPPS 170810Z 17012KT 26/16 A3005 RMK A01 T02610162  RH  057%=      5-min Rain = 0
KPPS 170815Z 18012KT 26/16 A3006 RMK A01 T02610162  RH  057%=      5-min Rain = 0
KPPS 170820Z 18013G18KT 26/16 A3006 RMK A01 T02610163  RH  058%=      5-min Rain = 0
KPPS 170825Z 18014KT 26/16 A3006 RMK A01 T02620164  RH  058%=      5-min Rain = 0
KPPS 170830Z 18014G19KT 26/17 A3006 RMK A01 T02610165  RH  058%=      5-min Rain = 0
KPPS 170835Z 19012KT 26/17 A3006 RMK A01 T02610165  RH  058%=      5-min Rain = 0
KPPS 170840Z 18011KT 26/17 A3006 RMK A01 T02590165  RH  059%=      5-min Rain = 0
KPPS 170845Z 18010KT 26/17 A3006 RMK A01 T02580165  RH  060%=      5-min Rain = 0
KPPS 170850Z 17011KT 26/17 A3006 RMK A01 T02560166  RH  060%=      5-min Rain = 0
KPPS 170855Z 17010KT 26/17 A3006 RMK A01 T02550166  RH  061%=      5-min Rain = 0
KPPS 170900Z 17011KT 26/17 A3006 RMK A01 T02550167  RH  061%=      5-min Rain = 0
KPPS 170905Z 18011KT 26/17 A3006 RMK A01 T02550167  RH  061%=      5-min Rain = 0
KPPS 170910Z 18010KT 25/17 A3006 RMK A01 T02540167  RH  062%=      5-min Rain = 0
KPPS 170915Z 18009KT 25/17 A3006 RMK A01 T02530168  RH  062%=      5-min Rain = 0
KPPS 170920Z 18010KT 25/17 A3006 RMK A01 T02520168  RH  062%=      5-min Rain = 0
KPPS 170925Z 18011KT 25/17 A3006 RMK A01 T02510167  RH  063%=      5-min Rain = 0
KPPS 170930Z 17011KT 25/17 A3005 RMK A01 T02510168  RH  063%=      5-min Rain = 0
KPPS 170935Z 18010KT 25/17 A3005 RMK A01 T02500168  RH  063%=      5-min Rain = 0
KPPS 170940Z 17011KT 25/17 A3005 RMK A01 T02500168  RH  063%=      5-min Rain = 0
KPPS 170945Z 17010KT 25/17 A3005 RMK A01 T02490168  RH  064%=      5-min Rain = 0
KPPS 170950Z 17010KT 25/17 A3005 RMK A01 T02480169  RH  064%=      5-min Rain = 0
KPPS 170955Z 17009KT 25/17 A3005 RMK A01 T02470169  RH  065%=      5-min Rain = 0
KPPS 171000Z 17009KT 25/17 A3005 RMK A01 T02460169  RH  065%=      5-min Rain = 0
KPPS 171005Z 17010KT 25/17 A3005 RMK A01 T02460169  RH  065%=      5-min Rain = 0
KPPS 171010Z 16009KT 25/17 A3005 RMK A01 T02450169  RH  066%=      5-min Rain = 0
KPPS 171015Z 16011KT 25/17 A3005 RMK A01 T02450170  RH  066%=      5-min Rain = 0
KPPS 171020Z 16010KT 25/17 A3005 RMK A01 T02450170  RH  066%=      5-min Rain = 0
KPPS 171025Z 16011KT 24/17 A3005 RMK A01 T02440170  RH  066%=      5-min Rain = 0
KPPS 171030Z 16010KT 24/17 A3005 RMK A01 T02430170  RH  067%=      5-min Rain = 0
KPPS 171035Z 16011KT 24/17 A3005 RMK A01 T02430170  RH  067%=      5-min Rain = 0
KPPS 171040Z 16011G16KT 24/17 A3005 RMK A01 T02420169  RH  067%=      5-min Rain = 0
KPPS 171045Z 16010KT 24/17 A3005 RMK A01 T02410169  RH  067%=      5-min Rain = 0
KPPS 171050Z 17010G15KT 24/17 A3005 RMK A01 T02400169  RH  068%=      5-min Rain = 0
KPPS 171055Z 17009KT 24/17 A3006 RMK A01 T02380169  RH  068%=      5-min Rain = 0
KPPS 171100Z 17009KT 24/17 A3006 RMK A01 T02370169  RH  069%=      5-min Rain = 0
KPPS 171105Z 17008KT 24/17 A3006 RMK A01 T02360168  RH  069%=      5-min Rain = 0
KPPS 171110Z 18008KT 24/17 A3006 RMK A01 T02350168  RH  069%=      5-min Rain = 0
KPPS 171115Z 17008KT 23/17 A3006 RMK A01 T02340168  RH  070%=      5-min Rain = 0
KPPS 171120Z 16009KT 23/17 A3006 RMK A01 T02340168  RH  070%=      5-min Rain = 0
KPPS 171125Z 16009KT 23/17 A3006 RMK A01 T02330168  RH  070%=      5-min Rain = 0
KPPS 171130Z 16010KT 23/17 A3006 RMK A01 T02330168  RH  070%=      5-min Rain = 0
KPPS 171135Z 16009KT 23/17 A3006 RMK A01 T02330168  RH  070%=      5-min Rain = 0
KPPS 171140Z 17007KT 23/17 A3006 RMK A01 T02320168  RH  071%=      5-min Rain = 0
KPPS 171145Z 18006KT 23/17 A3006 RMK A01 T02310168  RH  071%=      5-min Rain = 0
KPPS 171150Z 17007KT 23/17 A3006 RMK A01 T02290167  RH  072%=      5-min Rain = 0
KPPS 171155Z 16007KT 23/17 A3006 RMK A01 T02280167  RH  072%=      5-min Rain = 0
KPPS 171200Z 17007KT 23/17 A3006 RMK A01 T02280167  RH  072%=      5-min Rain = 0
KPPS 171205Z 18006KT 23/17 A3007 RMK A01 T02280168  RH  072%=      5-min Rain = 0
KPPS 171210Z 18006KT 23/17 A3007 RMK A01 T02280168  RH  072%=      5-min Rain = 0
KPPS 171215Z 17006KT 23/17 A3007 RMK A01 T02280168  RH  072%=      5-min Rain = 0
KPPS 171220Z 17005KT 23/17 A3007 RMK A01 T02290168  RH  072%=      5-min Rain = 0
KPPS 171225Z 18005KT 23/17 A3008 RMK A01 T02290168  RH  072%=      5-min Rain = 0
KPPS 171230Z 17005KT 23/17 A3008 RMK A01 T02310169  RH  071%=      5-min Rain = 0
KPPS 171235Z 17006KT 23/17 A3008 RMK A01 T02340169  RH  070%=      5-min Rain = 0
KPPS 171240Z 17005KT 24/17 A3008 RMK A01 T02350169  RH  070%=      5-min Rain = 0
KPPS 171245Z 17006KT 24/17 A3008 RMK A01 T02360170  RH  070%=      5-min Rain = 0
KPPS 171250Z 17007KT 24/17 A3008 RMK A01 T02380170  RH  069%=      5-min Rain = 0
KPPS 171255Z 17008KT 24/17 A3008 RMK A01 T02390170  RH  069%=      5-min Rain = 0
KPPS 171300Z 17007KT 24/17 A3008 RMK A01 T02410171  RH  068%=      5-min Rain = 0
KPPS 171305Z 17009KT 24/17 A3008 RMK A01 T02420171  RH  068%=      5-min Rain = 0
KPPS 171310Z 17012G17KT 24/17 A3008 RMK A01 T02420170  RH  067%=      5-min Rain = 0
KPPS 171315Z 17012KT 24/17 A3008 RMK A01 T02440170  RH  067%=      5-min Rain = 0
KPPS 171320Z 18014KT 25/17 A3008 RMK A01 T02450170  RH  066%=      5-min Rain = 0
KPPS 171325Z 17012KT 25/17 A3008 RMK A01 T02460170  RH  066%=      5-min Rain = 0
KPPS 171330Z 17013KT 25/17 A3008 RMK A01 T02480171  RH  065%=      5-min Rain = 0
KPPS 171335Z 18014KT 25/17 A3009 RMK A01 T02480170  RH  065%=      5-min Rain = 0
KPPS 171340Z 17014KT 25/17 A3009 RMK A01 T02500171  RH  065%=      5-min Rain = 0
KPPS 171345Z 17014KT 25/17 A3009 RMK A01 T02510171  RH  064%=      5-min Rain = 0
KPPS 171350Z 17014G19KT 25/17 A3009 RMK A01 T02530171  RH  063%=      5-min Rain = 0
KPPS 171355Z 17013KT 26/17 A3009 RMK A01 T02550171  RH  063%=      5-min Rain = 0
KPPS 171400Z 18017G23KT 26/17 A3009 RMK A01 T02550170  RH  062%=      5-min Rain = 0
KPPS 171405Z 18014KT 26/17 A3009 RMK A01 T02570171  RH  062%=      5-min Rain = 0
KPPS 171410Z 18016KT 26/17 A3009 RMK A01 T02590171  RH  061%=      5-min Rain = 0
KPPS 171415Z 17016KT 26/17 A3009 RMK A01 T02590170  RH  061%=      5-min Rain = 0
KPPS 171420Z 17014KT 26/17 A3009 RMK A01 T02600171  RH  061%=      5-min Rain = 0
KPPS 171425Z 18014KT 26/17 A3009 RMK A01 T02640171  RH  060%=      5-min Rain = 0
KPPS 171430Z 17014G19KT 27/17 A3009 RMK A01 T02650171  RH  059%=      5-min Rain = 0
KPPS 171435Z 18013KT 27/17 A3009 RMK A01 T02660171  RH  059%=      5-min Rain = 0
KPPS 171440Z 17015KT 27/17 A3009 RMK A01 T02690171  RH  058%=      5-min Rain = 0
KPPS 171445Z 18014G19KT 27/17 A3009 RMK A01 T02690171  RH  058%=      5-min Rain = 0
KPPS 171450Z 18014KT 27/17 A3009 RMK A01 T02720171  RH  057%=      5-min Rain = 0
KPPS 171455Z 17013KT 27/17 A3009 RMK A01 T02740173  RH  057%=      5-min Rain = 0
KPPS 171500Z 17014KT 28/17 A3009 RMK A01 T02750171  RH  056%=      5-min Rain = 0
KPPS 171505Z 16013KT 28/17 A3009 RMK A01 T02760171  RH  055%=      5-min Rain = 0
KPPS 171510Z 17013KT 28/17 A3009 RMK A01 T02790171  RH  055%=      5-min Rain = 0
KPPS 171515Z 16013KT 28/17 A3009 RMK A01 T02810172  RH  054%=      5-min Rain = 0
KPPS 171520Z 16013G18KT 28/17 A3009 RMK A01 T02840171  RH  053%=      5-min Rain = 0
KPPS 171525Z 16014KT 28/17 A3009 RMK A01 T02830171  RH  053%=      5-min Rain = 0
KPPS 171530Z 17012KT 28/17 A3009 RMK A01 T02840170  RH  053%=      5-min Rain = 0
KPPS 171535Z 17013KT 29/17 A3009 RMK A01 T02850173  RH  053%=      5-min Rain = 0
KPPS 171540Z 17012G17KT 29/17 A3009 RMK A01 T02860173  RH  053%=      5-min Rain = 0
KPPS 171545Z 16013KT 29/17 A3009 RMK A01 T02880173  RH  052%=      5-min Rain = 0
KPPS 171550Z 17012G17KT 29/17 A3009 RMK A01 T02920173  RH  051%=      5-min Rain = 0
KPPS 171555Z 16012KT 30/17 A3009 RMK A01 T02960173  RH  050%=      5-min Rain = 0
KPPS 171600Z 17013KT 30/17 A3009 RMK A01 T02960171  RH  050%=      5-min Rain = 0
KPPS 171605Z 16012KT 30/17 A3009 RMK A01 T02950172  RH  050%=      5-min Rain = 0
KPPS 171610Z 17013KT 30/17 A3008 RMK A01 T02960169  RH  049%=      5-min Rain = 0
KPPS 171615Z 17010G15KT 30/17 A3009 RMK A01 T02970171  RH  049%=      5-min Rain = 0
KPPS 171620Z 18010G15KT 30/17 A3009 RMK A01 T03020171  RH  048%=      5-min Rain = 0
KPPS 171625Z 17012G17KT 30/17 A3009 RMK A01 T03030170  RH  047%=      5-min Rain = 0
KPPS 171630Z 18011KT 30/17 A3009 RMK A01 T03040169  RH  046%=      5-min Rain = 0
KPPS 171635Z 16012KT 31/17 A3008 RMK A01 T03060166  RH  045%=      5-min Rain = 0
KPPS 171640Z 17012G18KT 31/17 A3008 RMK A01 T03080168  RH  045%=      5-min Rain = 0
KPPS 171645Z 18012KT 31/17 A3008 RMK A01 T03080166  RH  045%=      5-min Rain = 0
KPPS 171650Z 18011KT 31/17 A3008 RMK A01 T03080166  RH  045%=      5-min Rain = 0
KPPS 171655Z 16010G16KT 31/17 A3008 RMK A01 T03140168  RH  044%=      5-min Rain = 0
KPPS 171700Z 18012G19KT 32/16 A3008 RMK A01 T03150163  RH  042%=      5-min Rain = 0
KPPS 171705Z 18012G17KT 31/16 A3008 RMK A01 T03120163  RH  043%=      5-min Rain = 0
KPPS 171710Z 18012G17KT 31/16 A3008 RMK A01 T03140162  RH  042%=      5-min Rain = 0
KPPS 171715Z 16012KT 32/16 A3008 RMK A01 T03160162  RH  041%=      5-min Rain = 0
KPPS 171720Z 15012KT 32/16 A3008 RMK A01 T03210158  RH  039%=      5-min Rain = 0
KPPS 171725Z 16013KT 32/16 A3008 RMK A01 T03230155  RH  038%=      5-min Rain = 0
KPPS 171730Z 16013KT 32/15 A3008 RMK A01 T03220150  RH  037%=      5-min Rain = 0
KPPS 171735Z 15014G19KT 32/15 A3008 RMK A01 T03220147  RH  036%=      5-min Rain = 0
KPPS 171740Z 16013KT 32/15 A3008 RMK A01 T03210146  RH  036%=      5-min Rain = 0
KPPS 171745Z 17013G19KT 32/14 A3008 RMK A01 T03240143  RH  035%=      5-min Rain = 0
KPPS 171750Z 17014G20KT 33/14 A3008 RMK A01 T03270144  RH  035%=      5-min Rain = 0
KPPS 171755Z 18012G19KT 33/14 A3008 RMK A01 T03250137  RH  033%=      5-min Rain = 0
KPPS 171800Z 19010G20KT 33/14 A3007 RMK A01 T03270143  RH  034%=      5-min Rain = 0
KPPS 171805Z 18013G19KT 33/13 A3007 RMK A01 T03280133  RH  032%=      5-min Rain = 0
KPPS 171810Z 18013G18KT 33/14 A3007 RMK A01 T03270136  RH  033%=      5-min Rain = 0
KPPS 171815Z 17015G20KT 33/13 A3007 RMK A01 T03320129  RH  030%=      5-min Rain = 0
KPPS 171820Z 16012G19KT 33/14 A3007 RMK A01 T03340139  RH  032%=      5-min Rain = 0
KPPS 171825Z 17014G20KT 33/14 A3006 RMK A01 T03340137  RH  032%=      5-min Rain = 0
KPPS 171830Z 16012G19KT 33/13 A3006 RMK A01 T03340134  RH  031%=      5-min Rain = 0
KPPS 171835Z 16010G16KT 34/14 A3006 RMK A01 T03370137  RH  031%=      5-min Rain = 0
KPPS 171840Z 17014G33KT 34/13 A3006 RMK A01 T03410132  RH  030%=      5-min Rain = 0
KPPS 171845Z 16015KT 34/14 A3006 RMK A01 T03370138  RH  031%=      5-min Rain = 0
KPPS 171850Z 16014G20KT 34/14 A3006 RMK A01 T03380136  RH  031%=      5-min Rain = 0
KPPS 171855Z 18012G18KT 34/14 A3006 RMK A01 T03410137  RH  030%=      5-min Rain = 0
KPPS 171900Z 17011G20KT 34/13 A3005 RMK A01 T03370132  RH  030%=      5-min Rain = 0
KPPS 171905Z 19010G17KT 34/13 A3005 RMK A01 T03390126  RH  029%=      5-min Rain = 0
KPPS 171910Z 20011G19KT 34/13 A3005 RMK A01 T03390126  RH  029%=      5-min Rain = 0
KPPS 171915Z 14008G16KT 34/13 A3005 RMK A01 T03400132  RH  030%=      5-min Rain = 0
KPPS 171920Z 18012G18KT 34/13 A3005 RMK A01 T03380134  RH  030%=      5-min Rain = 0
KPPS 171925Z 14013G22KT 34/14 A3004 RMK A01 T03400137  RH  031%=      5-min Rain = 0
KPPS 171930Z 14014G22KT 35/14 A3004 RMK A01 T03450136  RH  030%=      5-min Rain = 0
KPPS 171935Z 16013G18KT 34/14 A3004 RMK A01 T03440135  RH  030%=      5-min Rain = 0
KPPS 171940Z 15014G21KT 35/13 A3003 RMK A01 T03450132  RH  029%=      5-min Rain = 0
KPPS 171945Z 15012G19KT 34/13 A3003 RMK A01 T03410130  RH  029%=      5-min Rain = 0
KPPS 171950Z 14012G18KT 34/13 A3003 RMK A01 T03430128  RH  028%=      5-min Rain = 0
KPPS 171955Z 17012G18KT 34/13 A3003 RMK A01 T03440125  RH  028%=      5-min Rain = 0
KPPS 172000Z 16009G20KT 34/13 A3003 RMK A01 T03440125  RH  028%=      5-min Rain = 0
KPPS 172005Z 19010G15KT 35/12 A3003 RMK A01 T03470124  RH  027%=      5-min Rain = 0
KPPS 172010Z 16010G16KT 35/13 A3002 RMK A01 T03470126  RH  027%=      5-min Rain = 0
KPPS 172015Z 14011G16KT 35/13 A3002 RMK A01 T03480125  RH  027%=      5-min Rain = 0
KPPS 172020Z 13012G19KT 35/12 A3002 RMK A01 T03480120  RH  026%=      5-min Rain = 0
KPPS 172025Z 14011G19KT 35/12 A3002 RMK A01 T03490120  RH  026%=      5-min Rain = 0
KPPS 172030Z 13010G17KT 35/12 A3002 RMK A01 T03500119  RH  026%=      5-min Rain = 0
KPPS 172035Z 17012G18KT 35/12 A3001 RMK A01 T03490121  RH  026%=      5-min Rain = 0
KPPS 172040Z 17010KT 35/12 A3001 RMK A01 T03500116  RH  025%=      5-min Rain = 0
KPPS 172045Z 19006G12KT 35/11 A3001 RMK A01 T03510112  RH  024%=      5-min Rain = 0
KPPS 172050Z 16009G15KT 35/11 A3001 RMK A01 T03540107  RH  023%=      5-min Rain = 0
KPPS 172055Z 21007KT 35/10 A3001 RMK A01 T03500101  RH  023%=      5-min Rain = 0
KPPS 172100Z 25005KT 35/10 A3001 RMK A01 T03490099  RH  023%=      5-min Rain = 0
KPPS 172105Z 16008G13KT 36/11 A3001 RMK A01 T03550111  RH  024%=      5-min Rain = 0
KPPS 172110Z 13008G17KT 35/11 A30 RMK A01 T03510112  RH  024%=      5-min Rain = 0
KPPS 172115Z 13008G16KT 35/12 A30 RMK A01 T03520121  RH  026%=      5-min Rain = 0
KPPS 172120Z 16009KT 36/12 A30 RMK A01 T03560116  RH  024%=      5-min Rain = 0
KPPS 172125Z 10006KT 35/11 A30 RMK A01 T03500113  RH  025%=      5-min Rain = 0
KPPS 172130Z 15006G12KT 35/11 A30 RMK A01 T03500113  RH  025%=      5-min Rain = 0
KPPS 172135Z 16009KT 35/11 A30 RMK A01 T03530112  RH  024%=      5-min Rain = 0
KPPS 172140Z 16004KT 35/11 A2999 RMK A01 T03520109  RH  024%=      5-min Rain = 0
KPPS 172145Z 15007G13KT 35/11 A2999 RMK A01 T03540113  RH  024%=      5-min Rain = 0
KPPS 172150Z 14008G13KT 36/11 A2999 RMK A01 T03560114  RH  024%=      5-min Rain = 0
KPPS 172155Z 13007G13KT 36/11 A2999 RMK A01 T03570113  RH  024%=      5-min Rain = 0
KPPS 172200Z 08004KT 35/11 A2998 RMK A01 T03530113  RH  024%=      5-min Rain = 0
KPPS 172205Z 11009G16KT 36/12 A2998 RMK A01 T03550118  RH  025%=      5-min Rain = 0
KPPS 172210Z 12009KT 35/12 A2998 RMK A01 T03530117  RH  025%=      5-min Rain = 0
KPPS 172215Z 14011KT 36/12 A2998 RMK A01 T03550116  RH  024%=      5-min Rain = 0
KPPS 172220Z 14012G17KT 36/12 A2998 RMK A01 T03570118  RH  025%=      5-min Rain = 0
KPPS 172225Z 16011KT 36/12 A2997 RMK A01 T03580122  RH  025%=      5-min Rain = 0
KPPS 172230Z 13011G17KT 36/12 A2997 RMK A01 T03600122  RH  025%=      5-min Rain = 0
KPPS 172235Z 13010KT 36/12 A2997 RMK A01 T03570119  RH  025%=      5-min Rain = 0
KPPS 172240Z 12008KT 36/12 A2997 RMK A01 T03550118  RH  025%=      5-min Rain = 0
KPPS 172245Z 12007KT 36/12 A2997 RMK A01 T03550118  RH  025%=      5-min Rain = 0
KPPS 172250Z 16011G16KT 36/12 A2997 RMK A01 T03570118  RH  025%=      5-min Rain = 0
KPPS 172255Z 14008G13KT 35/12 A2997 RMK A01 T03540119  RH  025%=      5-min Rain = 0
KPPS 172300Z 12008KT 35/12 A2997 RMK A01 T03540119  RH  025%=      5-min Rain = 0
KPPS 172305Z 15010KT 36/12 A2997 RMK A01 T03560119  RH  025%=      5-min Rain = 0
KPPS 172310Z 16008KT 36/12 A2997 RMK A01 T03560117  RH  025%=      5-min Rain = 0
KPPS 172315Z 17008G14KT 36/12 A2997 RMK A01 T03550119  RH  025%=      5-min Rain = 0
KPPS 172320Z 14007G15KT 36/12 A2997 RMK A01 T03550120  RH  025%=      5-min Rain = 0
KPPS 172325Z 14010G16KT 36/12 A2996 RMK A01 T03560123  RH  026%=      5-min Rain = 0
KPPS 172330Z 14009KT 36/12 A2996 RMK A01 T03550122  RH  026%=      5-min Rain = 0
KPPS 172335Z 14012G19KT 35/12 A2996 RMK A01 T03530124  RH  026%=      5-min Rain = 0
KPPS 172340Z 14012KT 35/12 A2996 RMK A01 T03520124  RH  026%=      5-min Rain = 0
KPPS 172345Z 15012G17KT 35/12 A2996 RMK A01 T03490122  RH  026%=      5-min Rain = 0
KPPS 172350Z 14010KT 35/12 A2996 RMK A01 T03470122  RH  027%=      5-min Rain = 0
KPPS 172355Z 13010KT 35/12 A2996 RMK A01 T03450122  RH  027%=      5-min Rain = 0
KPPS 180000Z 15011G16KT 35/12 A2996 RMK A01 T03450123  RH  027%=      5-min Rain = 0
KPPS 180005Z 13012KT 34/12 A2996 RMK A01 T03420124  RH  028%=      5-min Rain = 0
KPPS 180010Z 13011KT 34/13 A2996 RMK A01 T03390125  RH  028%=      5-min Rain = 0
KPPS 180015Z 13012G17KT 34/12 A2996 RMK A01 T03380122  RH  028%=      5-min Rain = 0
KPPS 180020Z 13011G16KT 34/13 A2996 RMK A01 T03370125  RH  029%=      5-min Rain = 0
KPPS 180025Z 13011KT 34/13 A2996 RMK A01 T03350127  RH  030%=      5-min Rain = 0
KPPS 180030Z 14010KT 33/13 A2996 RMK A01 T03340133  RH  031%=      5-min Rain = 0
KPPS 180035Z 15012KT 33/13 A2996 RMK A01 T03330128  RH  030%=      5-min Rain = 0
KPPS 180040Z 14013KT 33/14 A2996 RMK A01 T03320135  RH  032%=      5-min Rain = 0
KPPS 180045Z 13014KT 33/14 A2996 RMK A01 T03310138  RH  033%=      5-min Rain = 0
KPPS 180050Z 13012KT 33/14 A2996 RMK A01 T03300139  RH  033%=      5-min Rain = 0
KPPS 180055Z 13012KT 33/14 A2996 RMK A01 T03290139  RH  033%=      5-min Rain = 0
KPPS 180100Z 13012KT 33/14 A2996 RMK A01 T03280140  RH  033%=      5-min Rain = 0
KPPS 180105Z 14012KT 33/14 A2997 RMK A01 T03270140  RH  034%=      5-min Rain = 0
KPPS 180110Z 13013KT 33/14 A2997 RMK A01 T03270140  RH  034%=      5-min Rain = 0
KPPS 180115Z 14012G17KT 33/14 A2997 RMK A01 T03250140  RH  034%=      5-min Rain = 0
KPPS 180120Z 14012KT 32/14 A2997 RMK A01 T03240139  RH  034%=      5-min Rain = 0
KPPS 180125Z 15012KT 32/14 A2997 RMK A01 T03230139  RH  034%=      5-min Rain = 0
KPPS 180130Z 23013G19KT 32/14 A2998 RMK A01 T03170140  RH  036%=      5-min Rain = 0
KPPS 180135Z 24013KT 30/14 A2998 RMK A01 T03030142  RH  039%=      5-min Rain = 0
KPPS 180140Z 23015G20KT 30/15 A2998 RMK A01 T02970145  RH  041%=      5-min Rain = 0
KPPS 180145Z 23013G19KT 29/15 A2998 RMK A01 T02920147  RH  043%=      5-min Rain = 0
KPPS 180150Z 22009KT 29/15 A2998 RMK A01 T02880148  RH  044%=      5-min Rain = 0
KPPS 180155Z 22008G13KT 29/15 A2998 RMK A01 T02860149  RH  045%=      5-min Rain = 0
KPPS 180200Z 21008KT 28/15 A2998 RMK A01 T02840151  RH  046%=      5-min Rain = 0
KPPS 180205Z 21007KT 28/15 A2998 RMK A01 T02820153  RH  047%=      5-min Rain = 0
KPPS 180210Z 21007KT 28/15 A2998 RMK A01 T02800154  RH  048%=      5-min Rain = 0
KPPS 180215Z 22006KT 28/16 A2998 RMK A01 T02780155  RH  049%=      5-min Rain = 0
KPPS 180220Z 24006KT 28/16 A2998 RMK A01 T02750156  RH  050%=      5-min Rain = 0
KPPS 180225Z 22006KT 27/16 A2998 RMK A01 T02730156  RH  051%=      5-min Rain = 0
KPPS 180230Z 22004KT 27/16 A2999 RMK A01 T02730157  RH  051%=      5-min Rain = 0
KPPS 180235Z 20004KT 27/16 A2998 RMK A01 T02720157  RH  052%=      5-min Rain = 0
KPPS 180240Z 18004KT 27/16 A2998 RMK A01 T02690156  RH  052%=      5-min Rain = 0
KPPS 180245Z 18004KT 27/16 A2998 RMK A01 T02680158  RH  053%=      5-min Rain = 0
KPPS 180250Z 16004KT 27/16 A2998 RMK A01 T02670159  RH  054%=      5-min Rain = 0
KPPS 180255Z 18005KT 26/16 A2999 RMK A01 T02640159  RH  055%=      5-min Rain = 0
KPPS 180300Z 22004KT 26/16 A2999 RMK A01 T02630159  RH  055%=      5-min Rain = 0
KPPS 180305Z 23003KT 26/16 A2999 RMK A01 T02590159  RH  057%=      5-min Rain = 0
KPPS 180310Z 17002KT 26/16 A2999 RMK A01 T02570159  RH  057%=      5-min Rain = 0
KPPS 180315Z 13004KT 26/16 A2999 RMK A01 T02560158  RH  057%=      5-min Rain = 0
KPPS 180320Z 14004KT 25/16 A2999 RMK A01 T02530159  RH  058%=      5-min Rain = 0
KPPS 180325Z 13005KT 25/16 A2999 RMK A01 T02520158  RH  059%=      5-min Rain = 0
KPPS 180330Z 14007G14KT 25/16 A30 RMK A01 T02490158  RH  060%=      5-min Rain = 0
KPPS 180335Z 16012KT 25/15 A3001 RMK A01 T02520151  RH  056%=      5-min Rain = 0
KPPS 180340Z 16009KT 26/15 A3001 RMK A01 T02570145  RH  052%=      5-min Rain = 0
KPPS 180345Z 16009KT 26/14 A3001 RMK A01 T02580143  RH  051%=      5-min Rain = 0
KPPS 180350Z 17009KT 26/15 A3001 RMK A01 T02570146  RH  052%=      5-min Rain = 0
KPPS 180355Z 17010G16KT 26/15 A3001 RMK A01 T02570149  RH  053%=      5-min Rain = 0
KPPS 180400Z 16009KT 26/15 A3001 RMK A01 T02580151  RH  054%=      5-min Rain = 0
KPPS 180405Z 16009KT 26/15 A30 RMK A01 T02580152  RH  054%=      5-min Rain = 0
KPPS 180410Z 17010KT 26/15 A30 RMK A01 T02600151  RH  054%=      5-min Rain = 0
KPPS 180415Z 16010KT 26/15 A30 RMK A01 T02600151  RH  053%=      5-min Rain = 0
KPPS 180420Z 16009KT 26/15 A30 RMK A01 T02590152  RH  054%=      5-min Rain = 0
KPPS 180425Z 16010KT 26/15 A30 RMK A01 T02580151  RH  054%=      5-min Rain = 0
KPPS 180430Z 16012G17KT 26/15 A30 RMK A01 T02570151  RH  054%=      5-min Rain = 0
KPPS 180435Z 16013KT 25/15 A30 RMK A01 T02540151  RH  055%=      5-min Rain = 0
KPPS 180440Z 16011KT 25/15 A30 RMK A01 T02520150  RH  056%=      5-min Rain = 0
KPPS 180445Z 16010KT 25/15 A30 RMK A01 T02500150  RH  056%=      5-min Rain = 0
KPPS 180450Z 16011KT 25/15 A30 RMK A01 T02480150  RH  057%=      5-min Rain = 0
KPPS 180455Z 17011KT 25/15 A30 RMK A01 T02460149  RH  057%=      5-min Rain = 0

Page generated in 0.0246 seconds.